1800 m (dzieci 12-16 lat) 21 km 300 m (dzieci do lat 6) 600 m (dzieci 7-11 lat)

1800 m (dzieci 12-16 lat)

Msc Numer Nazwisko Imię M pł Klub Dystans 1okr nawrotka 2okr Meta
1 46 SOBIECKA KAJA K 1 U.K.S. ZWOLEŃ TEAM 1800 m (dzieci 12-16 lat) 00:01:28.47 00:00:30.07 00:02:21.64 00:04:20.18
2 48 SYLWESTRZAK MATEUSZ M 1 UKS GIŻYCKO 1800 m (dzieci 12-16 lat) 00:01:28.97 00:00:30.05 00:02:21.46 00:04:20.48
3 45 SARZAŁA NATALIA K 2 UKS ZWOLEŃ TEAM 1800 m (dzieci 12-16 lat) 00:01:28.21 00:00:30.07 00:02:22.27 00:04:20.55
4 36 GRZELECKA ZUZANNA K 3 UKS ZWOLEŃ TEAM 1800 m (dzieci 12-16 lat) 00:01:28.50 00:00:30.07 00:02:23.83 00:04:22.40
5 37 IVASHCHENKO OLEKSANDRA K 4 1800 m (dzieci 12-16 lat) 00:01:28.62 00:00:30.05 00:02:27.45 00:04:26.12
6 43 MYDLARSKI JAN M 2 1800 m (dzieci 12-16 lat) 00:01:29.72 00:00:30.30 00:03:03.51 00:05:03.53
7 42 LEWANDOWSKA WANDA K 5 ROLLTEAM BYDGOSZCZ 1800 m (dzieci 12-16 lat) 00:01:31.91 00:00:32.82 00:03:00.66 00:05:05.39
8 35 GRUNHOLC IZABELA K 6 1800 m (dzieci 12-16 lat) 00:01:31.67 00:00:36.21 00:03:38.63 00:05:46.51
9 38 JAWORSKI OSKAR M 3 KLUB SPORTOWY JASTRZĘBIE KORONOWO 1800 m (dzieci 12-16 lat) 00:01:42.12 00:00:38.90 00:03:38.03 00:05:59.05
10 34 GBURZYŃSKI MICHAŁ M 4 KS ORZEŁ 1800 m (dzieci 12-16 lat) 00:01:52.77 00:00:38.53 00:04:00.83 00:06:32.13
11 39 KOWALEWSKA KLARA K 7 FILONERO 1800 m (dzieci 12-16 lat) 00:01:53.25 00:00:42.12 00:04:10.90 00:06:46.27
12 44 RENK NATALIA K 8 1800 m (dzieci 12-16 lat) 00:02:03.94 00:00:44.65 00:04:57.86 00:07:46.45
13 49 SYLWESTRZAK POLA K 9 AMATOR 1800 m (dzieci 12-16 lat) 00:02:24.31 00:00:48.18 00:04:54.07 00:08:06.56
14 50 WNUCZKO ALEX M 5 1800 m (dzieci 12-16 lat) 00:02:07.63 00:00:55.33 00:06:47.89 00:09:50.85


21 km

Msc Numer Nazwisko Imię M pł Miejscowość Klub Kat M kat Dystans Meta 0,5 okr (1) 0,5 okr (2) 0,5 okr (3) 0,5 okr (4) 0,5 okr (5) 0,5 okr (6) 0,5 okr (7) 0,5 okr (8) 0,5 okr (9) 0,5 okr (10) 0,5 okr (11) 0,5 okr (12) 0,5 okr (13) 0,5 okr (14)
1 68 KOŚCIELNIAK WOJCIECH M 1 KRAKÓW KKSW KRAK M 20-29 1 21 km 00:35:37.07 00:02:38.51 00:02:10.99 00:02:51.47 00:02:14.06 00:02:49.50 00:02:15.87 00:02:50.83 00:02:13.11 00:02:53.31 00:02:16.10 00:02:56.06 00:02:13.58 00:02:54.52 00:02:19.16
2 54 CIEZKI PAWEL M 2 KRAKOW PLICHWYSCIG.PL ROLLERBLADE M 30-39 1 21 km 00:35:37.31 00:02:38.34 00:02:11.43 00:02:51.07 00:02:14.37 00:02:49.20 00:02:15.87 00:02:51.13 00:02:12.83 00:02:53.32 00:02:16.28 00:02:55.85 00:02:13.57 00:02:54.56 00:02:19.49
3 120 FLEJSZER ŁUKASZ M 3 GOSTYNIN UKS ZWOLEŃ-TEAM M 40-49 1 21 km 00:38:07.80 00:02:55.51 00:02:17.77 00:02:58.61 00:02:20.34 00:03:05.23 00:02:24.64 00:03:03.91 00:02:24.43 00:03:08.12 00:02:26.12 00:03:05.00 00:02:25.24 00:03:07.56 00:02:25.32
4 110 BOGUSŁAWSKI KAROL M 4 POZNAŃ ROLL 4 LIFE M 20-29 2 21 km 00:39:52.80 00:02:55.34 00:02:17.74 00:03:02.83 00:02:31.07 00:03:11.98 00:02:32.59 00:03:12.26 00:02:34.68 00:03:21.12 00:02:35.21 00:03:17.14 00:02:35.89 00:03:15.22 00:02:29.73
5 92 SZUMLAS JACEK M 5 MRZEZINO M 40-49 2 21 km 00:40:01.83 00:02:55.18 00:02:17.90 00:03:21.09 00:02:31.29 00:03:14.99 00:02:37.62 00:03:16.97 00:02:32.12 00:03:14.82 00:02:34.10 00:03:15.40 00:02:32.77 00:03:11.28 00:02:26.30
6 114 MICHALSKI MARIUSZ M 6 PISZ UKS ZWOLEŃ-TEAM M 30-39 2 21 km 00:40:02.46 00:02:56.24 00:02:25.55 00:03:12.74 00:02:30.78 00:03:13.59 00:03:28.17 00:01:14.00 00:03:46.00 00:03:15.20 00:02:34.05 00:03:15.53 00:02:32.65 00:03:10.97 00:02:26.99
7 115 CIBOROWSKI SEBASTIAN M 7 PISZ KS SEBA-APORT PISZ M 50-59 1 21 km 00:41:15.34 00:03:06.91 00:02:20.07 00:03:11.86 00:02:27.04 00:03:27.10 00:02:39.78 00:03:20.50 00:02:41.48 00:03:22.53 00:02:38.23 00:03:24.95 00:02:41.68 00:03:21.53 00:02:31.68
8 121 SOBIECKA KAJA K 1 GOSTYNIN U.K.S. ZWOLEŃ-TEAM K 13-19 1 21 km 00:41:46.80 00:03:07.51 00:02:22.05 00:03:25.43 00:02:44.27 00:03:27.53 00:02:38.65 00:03:20.81 00:02:38.30 00:03:19.64 00:02:40.48 00:03:26.18 00:02:43.05 00:03:29.29 00:02:23.61
9 84 SARZAŁA NATALIA K 2 GOSTYNIN UKS ZWOLEŃ TEAM K 13-19 2 21 km 00:41:47.31 00:03:06.70 00:02:22.41 00:03:26.56 00:02:42.83 00:03:27.89 00:02:40.21 00:03:19.70 00:02:38.05 00:03:20.37 00:02:39.47 00:03:27.08 00:02:42.49 00:03:29.18 00:02:24.37
10 72 KWIATKOWSKI ŁUKASZ M 8 BYDGOSZCZ KLUB SPORTOWY JASTRZĘBIE BYDGOSZCZ M 30-39 3 21 km 00:41:48.75 00:03:07.83 00:02:21.56 00:03:26.49 00:02:42.53 00:03:27.85 00:02:39.95 00:03:19.71 00:02:37.90 00:03:20.62 00:02:39.98 00:03:26.35 00:02:43.64 00:03:28.33 00:02:26.01
11 62 GRZELECKA ZUZANNA K 3 GOSTYNIN UKS ZWOLEŃ TEAM K 13-19 3 21 km 00:41:50.47 00:03:08.96 00:02:28.06 00:03:22.54 00:02:39.89 00:03:27.72 00:02:38.73 00:03:19.62 00:02:39.17 00:03:19.94 00:02:40.18 00:03:26.27 00:02:42.95 00:03:28.53 00:02:27.91
12 103 ZDANCEWICZ PAWEŁ M 9 WARSZAWA LEGIA WARSZAWA MASTERS M 40-49 3 21 km 00:41:52.14 00:03:07.13 00:02:22.43 00:03:25.65 00:02:42.97 00:03:29.29 00:02:38.45 00:03:19.84 00:02:38.92 00:03:19.76 00:02:40.03 00:03:26.98 00:02:43.15 00:03:28.55 00:02:28.99
13 63 HEINRICH JULIA K 4 KORONOWO KLUB SPORTOWY JASTRZĘBIE KORONOWO/CORTEZ SPORT K 13-19 4 21 km 00:41:52.78 00:03:07.23 00:02:22.00 00:03:25.56 00:02:43.93 00:03:27.74 00:02:38.79 00:03:20.87 00:02:37.95 00:03:19.87 00:02:41.05 00:03:26.28 00:02:43.13 00:03:28.42 00:02:29.96
14 74 ŁUKASIEWICZ JACEK M 10 GDAŃSK M 40-49 4 21 km 00:41:53.48 00:03:26.88 00:02:31.98 00:03:26.69 00:02:26.85 00:03:15.52 00:02:39.23 00:03:20.63 00:02:37.92 00:03:19.59 00:02:40.14 00:03:26.63 00:02:42.95 00:03:29.11 00:02:29.36
15 111 TURKIEWICZ GRZEGORZ M 11 ZDUŃSKA WOLA GATTA SPEED SKATING M 50-59 2 21 km 00:42:04.31 00:03:07.88 00:02:28.82 00:03:23.11 00:02:39.98 00:03:27.66 00:02:39.10 00:03:21.52 00:02:37.58 00:03:19.80 00:02:40.19 00:03:26.55 00:02:43.38 00:03:28.84 00:02:39.90
16 80 MYDLARSKI JAREK M 12 GDYNIA ROLL4ALL M 40-49 5 21 km 00:42:05.44 00:03:07.46 00:02:21.66 00:03:26.53 00:02:42.94 00:03:28.23 00:02:39.60 00:03:20.06 00:02:37.81 00:03:20.46 00:02:40.25 00:03:26.82 00:02:42.41 00:03:28.43 00:02:42.78
17 94 ŚLIWIŃSKI HENRYK M 13 TORUŃ ROLLA TORUŃ M 60-69 1 21 km 00:43:01.59 00:03:21.36 00:02:36.23 00:03:26.82 00:02:32.90 00:03:34.33 00:02:42.92 00:03:29.89 00:02:45.66 00:03:30.24 00:02:42.94 00:03:29.29 00:02:47.60 00:03:26.46 00:02:34.95
18 66 KASPROWICZ DANIEL M 14 WĄGROWIEC PLICHWYSCIG M 40-49 6 21 km 00:43:01.76 00:03:08.39 00:02:28.46 00:03:38.23 00:02:41.62 00:03:34.64 00:02:43.37 00:03:29.46 00:02:47.79 00:03:29.63 00:02:42.49 00:03:30.17 00:02:47.32 00:03:24.03 00:02:36.16
19 96 TOKARZ MAŁGORZATA K 5 GORLICE KKSW KRAK K 20-29 1 21 km 00:43:03.54 00:03:07.01 00:02:33.53 00:03:34.76 00:02:41.58 00:03:34.60 00:02:43.08 00:03:29.14 00:02:47.01 00:03:29.33 00:02:41.93 00:03:31.06 00:02:46.39 00:03:25.11 00:02:39.01
20 83 PRZYCHODNIAK ROBERT M 15 PABIANICE GATTA SPEED SKATING M 30-39 4 21 km 00:43:03.76 00:03:13.16 00:02:43.95 00:03:27.18 00:02:39.19 00:03:29.78 00:02:42.42 00:03:30.29 00:02:45.41 00:03:29.41 00:02:42.97 00:03:29.77 00:02:46.98 00:03:24.35 00:02:38.90
21 122 SZELAK MIROSŁAW M 16 NOWA WIES LEBORSKA M 40-49 7 21 km 00:43:06.76 00:03:09.21 00:02:27.19 00:03:23.01 00:02:39.73 00:03:27.90 00:02:38.63 00:03:21.59 00:02:37.84 00:03:59.25 00:02:58.25 00:03:30.76 00:02:46.61 00:03:26.32 00:02:40.47
22 102 WRÓBEL ANTONI M 17 PĘPOWO KARTUSKIE M 70+ 1 21 km 00:43:15.19 00:03:21.15 00:02:36.70 00:03:26.81 00:02:32.86 00:03:33.55 00:02:43.78 00:03:29.83 00:02:44.74 00:03:30.26 00:02:43.06 00:03:29.51 00:02:48.55 00:03:27.34 00:02:47.05
23 85 SOBCZYŃSKI BARTOSZ M 18 TCZEW M 40-49 8 21 km 00:43:16.59 00:03:26.19 00:02:32.97 00:03:26.83 00:02:35.57 00:03:31.46 00:02:42.39 00:03:30.23 00:02:45.61 00:03:29.40 00:02:41.56 00:03:29.83 00:02:47.64 00:03:28.21 00:02:48.70
24 60 GRASZKA BARTOSZ M 19 GDYNIA ROLL4ALL M 40-49 9 21 km 00:43:32.68 00:03:22.47 00:02:35.68 00:03:26.76 00:02:32.86 00:03:34.79 00:02:42.45 00:03:30.78 00:02:45.10 00:03:29.56 00:02:43.01 00:03:30.23 00:02:47.49 00:03:31.17 00:03:00.33
25 124 BORLIK RAFAŁ M 20 NOWA WIES LEBORSKA M 30-39 5 21 km 00:43:35.06 00:03:13.91 00:02:43.25 00:03:28.11 00:02:39.31 00:03:28.91 00:02:42.52 00:03:30.07 00:02:45.63 00:03:29.24 00:02:42.87 00:03:30.06 00:02:47.39 00:03:29.83 00:03:03.96
26 125 KOSZAŁKA ANDRZEJ M 21 NOWA WIEŚ LĘBORSKA NOVILE M 40-49 10 21 km 00:45:38.06 00:03:14.53 00:02:42.31 00:03:28.35 00:02:39.28 00:03:36.91 00:02:59.69 00:03:56.18 00:02:58.63 00:03:58.59 00:02:55.89 00:03:31.80 00:02:51.78 00:03:53.95 00:02:50.17
27 123 KONKEL MATEUSZ M 22 CHAŁUPY M 40-49 11 21 km 00:45:47.41 00:03:25.86 00:02:38.53 00:03:37.14 00:02:43.30 00:03:43.86 00:02:49.39 00:03:42.50 00:02:51.67 00:03:55.62 00:02:52.92 00:03:41.78 00:02:59.69 00:03:59.56 00:02:45.59
28 116 KOWALSKI DAMIAN M 23 GDANSK OBIEGUWKA UW M 40-49 12 21 km 00:46:02.16 00:03:21.70 00:02:36.69 00:03:27.18 00:02:45.04 00:03:49.16 00:03:04.09 00:03:56.67 00:02:58.12 00:03:51.79 00:02:57.06 00:03:48.29 00:02:54.66 00:03:53.81 00:02:37.90
29 113 SYLWESTRZAK MATEUSZ M 24 GIŻYCKO UKS GIŻYCKO M 13-19 1 21 km 00:46:03.21 00:03:30.12 00:02:34.90 00:03:21.69 00:02:38.32 00:03:36.83 00:03:05.87 00:04:05.06 00:03:06.19 00:03:51.01 00:02:55.25 00:03:50.26 00:02:54.56 00:03:53.92 00:02:39.23
30 64 IVASHCHENKO OLEKSANDRA K 6 GDANSK STOWARZYSZENIE WROTKARSKIE GDAŃSKIE LWY K 13-19 5 21 km 00:46:09.48 00:03:21.87 00:02:35.99 00:03:28.46 00:02:42.58 00:03:49.84 00:03:07.34 00:03:54.09 00:02:58.54 00:03:51.44 00:02:56.34 00:03:49.43 00:02:54.65 00:03:53.78 00:02:45.13
31 91 SZUMLAS DOROTA K 7 MRZEZINO K 40-49 1 21 km 00:46:28.33 00:03:24.56 00:02:40.03 00:03:47.78 00:02:48.49 00:03:53.64 00:02:56.57 00:03:53.10 00:03:05.03 00:03:45.16 00:02:57.69 00:03:47.23 00:02:58.36 00:03:49.41 00:02:41.28
32 61 GRYCH JAGNA K 8 GDAŃSK AMATOR K 30-39 1 21 km 00:46:28.56 00:03:25.40 00:02:40.24 00:03:46.83 00:02:48.18 00:03:53.67 00:02:57.17 00:03:52.46 00:03:04.15 00:03:47.15 00:02:57.12 00:03:47.34 00:02:57.25 00:03:49.70 00:02:41.90
33 73 LEWANDOWSKI PAWEŁ M 25 RUMIA M 30-39 6 21 km 00:46:30.14 00:03:26.84 00:02:38.04 00:03:36.17 00:02:51.60 00:04:02.29 00:02:56.73 00:02:57.28 00:04:00.00 00:03:45.77 00:02:57.20 00:03:47.79 00:02:57.76 00:03:50.42 00:02:42.25
34 70 KRETKIEWICZ MAGDALENA K 9 GDAŃSK STOWARZYSZENIE WROTKARSKIE GDAŃSKIE LWY K 20-29 2 21 km 00:46:30.33 00:03:25.62 00:02:40.14 00:03:47.00 00:02:47.62 00:03:54.28 00:02:56.19 00:03:53.44 00:03:03.99 00:03:45.82 00:02:58.46 00:03:46.91 00:02:57.26 00:03:50.22 00:02:43.38
35 77 MAZUREK WIESŁAW M 26 GDYNIA PROLUBE MASTERS M 50-59 3 21 km 00:46:37.27 00:03:08.44 00:02:32.27 00:03:46.16 00:02:52.57 00:04:15.54 00:02:57.11 00:03:52.36 00:03:04.04 00:03:46.28 00:02:57.92 00:03:47.24 00:02:57.21 00:03:50.23 00:02:49.90
36 90 SZUMLAS ARKADIUSZ M 27 MRZEZINO ZOELLER TECH/PROLUBE M 20-29 3 21 km 00:48:21.54 00:02:55.09 00:02:28.06 00:03:31.94 00:02:42.99 00:03:40.43 00:04:12.17 00:03:54.35 00:03:04.66 00:04:11.21 00:03:01.23 00:04:14.76 00:03:11.56 00:04:18.86 00:02:54.23
37 104 ZIÓŁKOWSKI JULIAN M 28 GDAŃSK STOWARZYSZENIE WROTKARSKIE GDAŃSKIE LWY M 50-59 4 21 km 00:48:21.74 00:03:30.21 00:02:35.00 00:03:21.03 00:02:40.89 00:03:52.20 00:03:06.71 00:04:17.31 00:03:05.32 00:04:11.73 00:03:06.39 00:04:10.26 00:03:10.98 00:04:19.40 00:02:54.31
38 106 SZULC MAREK M 29 GDYNIA M 60-69 2 21 km 00:50:55.36 00:04:01.31 00:02:57.54 00:04:06.31 00:03:05.00 00:04:02.31 00:03:03.86 00:04:16.79 00:03:14.90 00:04:16.59 00:03:13.62 00:04:12.38 00:03:04.58 00:04:07.54 00:03:12.63
39 55 CZERNIAWSKI PIOTR M 30 GDYNIA M 50-59 5 21 km 00:51:43.78 00:04:02.48 00:02:56.82 00:04:04.99 00:03:05.22 00:04:03.37 00:03:03.87 00:04:19.80 00:03:17.59 00:04:21.98 00:03:25.12 00:04:19.51 00:03:17.82 00:04:14.48 00:03:10.73
40 57 ENGELBERG ŁUKASZ M 31 GDAŃSK M 30-39 7 21 km 00:52:12.86 00:03:53.57 00:03:05.05 00:04:06.11 00:03:06.36 00:04:24.84 00:03:28.15 00:04:20.99 00:03:13.94 00:04:24.74 00:03:15.19 00:04:13.21 00:03:11.36 00:04:14.00 00:03:15.35
41 78 MIERSKI MATEUSZ M 32 KOŚCIERZYNA M 20-29 4 21 km 00:53:10.54 00:04:02.15 00:02:57.93 00:04:04.94 00:03:04.96 00:04:02.27 00:03:19.01 00:04:31.43 00:03:21.04 00:04:27.66 00:03:31.11 00:04:17.79 00:03:25.99 00:04:27.65 00:03:36.61
42 108 STANKIEWICZ ANNA K 10 GIŻYCKO GIŻYCKIE STOWARZYSZENIE ŁYŻWIARSKIE "CZARNE PANTERY" K 60-69 1 21 km 00:53:49.44 00:04:17.45 00:03:10.16 00:04:14.38 00:03:20.35 00:04:15.63 00:03:32.33 00:04:16.31 00:03:23.44 00:04:27.68 00:03:32.11 00:04:23.69 00:03:21.51 00:04:24.90 00:03:09.50
43 56 DEREZIŃSKA MAŁGORZATA K 11 SOPOT ROLL4ALL K 50-59 1 21 km 00:53:49.50 00:04:18.63 00:03:09.55 00:04:14.83 00:03:19.87 00:04:15.99 00:03:31.96 00:04:16.86 00:03:22.24 00:04:28.30 00:03:31.52 00:04:24.20 00:03:21.02 00:04:24.89 00:03:09.64
44 67 KOPYT JAN M 33 KONSTANCIN- JEZIORNA NEZRZESZONY M 70+ 2 21 km 00:53:55.01 00:04:19.15 00:03:09.50 00:04:14.07 00:03:20.30 00:04:16.24 00:03:31.88 00:04:16.89 00:03:22.59 00:04:28.22 00:03:31.43 00:04:24.12 00:03:21.04 00:04:25.01 00:03:14.57
45 59 GBURZYŃSKI RAFAŁ M 34 ELBLĄG AZJA TEAM M 40-49 13 21 km 00:54:51.14 00:04:44.06 00:03:15.36 00:04:19.57 00:03:16.86 00:04:24.31 00:03:23.23 00:04:19.71 00:03:19.72 00:04:26.13 00:03:36.15 00:04:26.89 00:03:29.91 00:04:36.04 00:03:13.20
46 69 KRASUSKA ANNA K 12 ELBLĄG KS ORZEŁ ELBLĄG K 60-69 2 21 km 00:56:03.17 00:04:18.84 00:03:15.98 00:04:17.97 00:03:31.82 00:04:16.48 00:03:28.46 00:04:14.96 00:03:31.57 00:04:41.00 00:03:36.05 00:04:46.89 00:03:28.97 00:04:53.01 00:03:41.17
47 109 SŁOWIK ARKADIUSZ M 35 KRUKLANKI GIŻYCKIE STOWARZYSZENIE ŁYŻWIARSKIE "CZARNE PANTERY" M 60-69 3 21 km 00:56:12.57 00:04:41.63 00:03:33.27 00:04:28.53 00:03:35.90 00:04:22.67 00:03:41.96 00:04:30.62 00:03:31.16 00:04:26.10 00:03:33.18 00:04:32.14 00:03:28.05 00:04:24.06 00:03:23.30
48 95 ŚPICA DARIUSZ M 36 BYDGOSZCZ KLUB SPORTOWY JASTRZĘBIE BYDGOSZCZ M 50-59 6 21 km 00:56:13.17 00:04:46.37 00:03:17.46 00:04:28.71 00:03:31.00 00:04:31.35 00:03:41.35 00:04:39.73 00:03:31.15 00:04:26.05 00:03:32.97 00:04:31.55 00:03:27.79 00:04:24.09 00:03:23.60
49 51 BANIA ZYGMUNT M 37 PRZYSIEK M 70+ 3 21 km 00:56:33.22 00:04:42.31 00:03:19.20 00:04:30.64 00:03:34.77 00:04:41.99 00:03:39.11 00:04:27.70 00:03:31.18 00:04:25.77 00:03:33.03 00:04:32.45 00:03:28.35 00:04:34.79 00:03:31.93
50 82 OSZCZYK GRZEGORZ M 38 SOBOLE AMATOR M 60-69 4 21 km 00:56:38.30 00:04:45.82 00:03:17.75 00:04:29.56 00:03:35.37 00:04:40.78 00:03:38.55 00:04:27.77 00:03:31.02 00:04:25.86 00:03:33.22 00:04:31.88 00:03:28.86 00:04:34.40 00:03:37.46
51 81 NIEWĘGŁOWSKI RYSZARD M 39 GDAŃSK M 40-49 14 21 km 00:56:41.55 00:04:19.36 00:03:09.48 00:04:14.21 00:03:20.77 00:04:16.06 00:03:31.72 00:04:19.78 00:03:28.62 00:04:43.94 00:03:40.54 00:04:51.61 00:03:43.31 00:05:03.06 00:03:59.09
52 112 CZEPUŁKOWSKI RAFAŁ M 40 GDYNIA MARINERS KOSAKOWO M 50-59 7 21 km 00:57:03.40 00:04:47.41 00:03:24.77 00:04:32.20 00:03:37.14 00:04:29.04 00:03:39.81 00:04:33.20 00:03:37.60 00:04:20.66 00:03:37.57 00:04:40.80 00:03:41.07 00:04:37.09 00:03:25.04
53 98 WILCZEWSKI BARTŁOMIEJ M 41 SULĘCZYNO M 20-29 5 21 km 00:57:24.29 00:04:33.82 00:03:16.83 00:04:23.42 00:03:39.95 00:04:29.95 00:04:05.60 00:04:32.86 00:03:37.86 00:04:38.51 00:03:48.05 00:04:42.36 00:03:37.70 00:04:35.28 00:03:22.10
54 79 MIERSKI ZBIGNIEW M 42 KOŚCIERZYNA M 60-69 5 21 km 00:57:28.63 00:04:24.76 00:03:30.00 00:02:25.57 00:04:38.36 00:04:21.64 00:03:32.31 00:02:29.25 00:04:43.18 00:04:57.31 00:04:19.51 00:04:53.78 00:03:46.71 00:05:09.55 00:04:16.70
55 52 BIAŁOSKÓRSKA MAŁGORZATA K 13 GDYNIA ROLL4ALL K 40-49 2 21 km 00:57:45.67 00:04:34.39 00:03:24.33 00:04:19.78 00:03:26.58 00:04:24.66 00:03:37.53 00:04:27.30 00:03:37.06 00:04:42.16 00:03:48.06 00:04:53.92 00:04:00.86 00:04:41.62 00:03:47.42
56 99 WILCZEWSKI MACIEJ M 43 SULĘCZYNO M 50-59 8 21 km 00:58:13.95 00:04:11.48 00:03:04.25 00:04:19.68 00:03:33.30 00:04:33.06 00:03:29.52 00:04:23.08 00:03:40.57 00:04:52.88 00:03:48.06 00:04:55.98 00:03:47.96 00:05:17.25 00:04:16.88
57 107 JEZIERNY MAREK M 44 GDYNIA M 60-69 6 21 km 00:58:43.23 00:04:04.01 00:03:13.99 00:04:23.86 00:03:43.43 00:04:16.19 00:03:28.37 00:04:14.97 00:03:31.61 00:04:41.23 00:03:36.04 00:05:02.36 00:04:18.39 00:05:38.91 00:04:29.87
58 75 MACIEJEWSKI TOMASZ M 45 GDAŃSK M 30-39 8 21 km 00:58:56.19 00:04:47.83 00:03:13.04 00:04:25.12 00:03:52.82 00:04:27.69 00:03:39.80 00:04:45.66 00:03:49.67 00:04:41.73 00:03:48.02 00:04:44.55 00:03:50.53 00:04:56.01 00:03:53.72
59 53 BROWARCZYK WIESŁAW M 46 RYBKI M 60-69 7 21 km 00:59:25.01 00:04:45.29 00:03:09.63 00:04:25.77 00:03:37.98 00:04:38.36 00:03:50.39 00:04:39.61 00:03:37.37 00:05:02.54 00:03:47.68 00:04:49.79 00:03:57.77 00:05:04.96 00:03:57.87
60 87 STRZAŁKOWSKI ANDRZEJ M 47 PŁOŃSK AMATOR M 50-59 9 21 km 01:01:29.65 00:04:41.93 00:03:19.31 00:04:32.25 00:03:33.17 00:04:42.08 00:03:39.77 00:05:00.37 00:03:59.71 00:05:08.02 00:03:52.01 00:05:09.32 00:04:03.89 00:05:29.19 00:04:18.63
61 65 JAWORSKI RAFAŁ M 48 GDAŃSK M 40-49 15 21 km 01:01:40.88 00:04:49.17 00:03:28.66 00:04:44.43 00:03:50.26 00:04:54.68 00:03:57.14 00:04:54.66 00:04:00.56 00:05:15.54 00:03:56.14 00:04:55.22 00:03:42.17 00:05:09.96 00:04:02.29
62 117 KOSKO CEZARY M 49 OLSZTYN M 70+ 4 21 km 01:02:43.41 00:04:44.63 00:03:22.21 00:04:28.98 00:03:44.39 00:04:31.49 00:03:52.49 00:05:16.78 00:04:05.73 00:05:22.93 00:03:59.40 00:05:29.37 00:04:25.97 00:05:26.97 00:03:52.07
63 89 SZREDER MARIOLA K 14 REDA K 50-59 2 21 km 01:02:49.52 00:05:33.27 00:03:47.71 00:04:49.95 00:03:51.61 00:04:49.83 00:03:48.65 00:05:01.94 00:03:53.90 00:05:08.84 00:03:46.25 00:05:08.93 00:04:02.83 00:05:05.11 00:04:00.70
64 100 WNUCZKO ALAN M 50 PRUSZCZ GDAŃSKI M 13-19 2 21 km 01:04:44.25 00:05:02.90 00:03:32.50 00:05:00.20 00:04:01.92 00:05:19.76 00:04:05.58 00:04:58.58 00:03:57.17 00:05:14.92 00:04:00.48 00:05:27.20 00:04:16.98 00:05:43.92 00:04:02.14
65 76 MALLACH MICHALINA K 15 GDAŃSK K 30-39 2 21 km 01:05:12.04 00:04:57.83 00:03:38.81 00:04:54.99 00:03:55.67 00:05:23.13 00:04:09.33 00:05:12.14 00:04:20.99 00:05:21.94 00:04:06.15 00:05:35.23 00:04:11.69 00:05:28.05 00:03:56.09
66 71 KRYSZAK KATARZYNA K 16 WŁADYSŁAWOWO K 30-39 3 21 km 01:07:01.48 00:04:59.40 00:03:32.37 00:04:41.64 00:03:43.62 00:04:45.31 00:03:54.28 00:05:08.40 00:04:17.26 00:05:54.61 00:05:56.55 00:05:39.18 00:04:08.57 00:05:40.27 00:04:40.02
67 58 FILAR KATARZYNA K 17 ROZŁAZINO K 40-49 3 21 km 01:07:09.48 00:05:01.54 00:03:46.96 00:05:04.12 00:04:04.48 00:05:08.25 00:04:12.66 00:05:13.61 00:04:16.22 00:05:36.17 00:04:12.16 00:05:45.94 00:04:22.24 00:05:54.14 00:04:30.99
68 97 WALTER MONIKA K 18 GDAŃSK K 30-39 4 21 km 01:08:49.31 00:05:12.35 00:03:55.81 00:05:05.53 00:04:19.53 00:05:22.08 00:04:20.25 00:05:25.86 00:04:22.76 00:05:34.35 00:04:25.66 00:05:39.57 00:04:38.59 00:05:49.76 00:04:37.21
69 126 MALINOWKSI MARCIN M 51 GDYNIA M 30-39 9 21 km 01:09:09.01 00:05:13.67 00:03:55.28 00:05:15.06 00:04:17.82 00:05:37.83 00:04:26.82 00:05:38.08 00:04:29.86 00:05:52.92 00:04:26.87 00:05:37.87 00:04:17.85 00:05:38.20 00:04:20.88
70 101 WNUCZKO KAROL M 52 PRUSZCZ GDAŃSKI M 40-49 16 21 km 01:09:48.76 00:05:15.33 00:03:54.10 00:05:15.51 00:04:17.20 00:05:37.90 00:04:27.09 00:05:39.14 00:04:33.57 00:05:47.30 00:04:28.24 00:05:41.82 00:04:33.47 00:05:48.67 00:04:29.42
71 86 STACHOWSKA MONIKA K 19 GDAŃSK KOŁAMI DO GÓRY K 40-49 4 21 km 01:10:26.62 00:04:55.77 00:03:48.64 00:05:00.60 00:04:02.19 00:05:09.59 00:04:05.60 00:05:20.52 00:04:31.87 00:05:55.42 00:04:34.58 00:06:17.53 00:04:53.66 00:06:30.58 00:05:20.07
72 118 RADZEWICZ DAWID M 53 RĘBIELCZ M 20-29 6 21 km 01:14:52.63 00:05:14.80 00:04:04.36 00:05:51.54 00:04:36.42 00:06:26.60 00:04:37.61 00:06:11.70 00:04:42.65 00:06:48.28 00:04:35.04 00:06:13.40 00:04:46.14 00:06:18.48 00:04:25.61


300 m (dzieci do lat 6)

Msc Numer Nazwisko Imię M pł Miejscowość Klub Dystans Meta
1 119 SOKIŃSKA MARIA K 1 BOŻEPOLE WIELKIE BOŻEPOLE WIELKIE 300 m (dzieci do lat 6) 00:03:02.27
2 2 KRYSZAK GABRIEL M 1 WŁADYSŁAWOWO 300 m (dzieci do lat 6) 00:05:53.10
3 1 HEINRICH MARCELINA K 2 KORONOWO KLUB SPORTOWY JASTRZĘBIE KORONOWO 300 m (dzieci do lat 6) 00:06:14.04


600 m (dzieci 7-11 lat)

Msc Numer Nazwisko Imię M pł Miejscowość Klub Dystans Meta
1 32 TOPOLIŃSKA EMILIA K 1 KORONOWO KLUB SPORTOWY JASTRZĘBIE KORONOWO 600 m (dzieci 7-11 lat) 00:01:25.26
2 6 DEROŃ ZOFIA K 2 GOSTYNIN UKS ZWOLEŃ-TEAM 600 m (dzieci 7-11 lat) 00:01:32.54
3 29 PROCH WIKTORIA K 3 KORONOWO 600 m (dzieci 7-11 lat) 00:01:35.26
4 5 DEROŃ HANNA K 4 GOSTYNIN UKS ZWOLEŃ-TEAM 600 m (dzieci 7-11 lat) 00:01:35.69
5 25 NIEWĘGŁOWSKA MARCELINA K 5 GDAŃSK 600 m (dzieci 7-11 lat) 00:01:48.61
6 15 KOŃCZAK ALEKSANDRA K 6 GDAŃSK SP 19 W GDAŃSKU 600 m (dzieci 7-11 lat) 00:01:50.29
7 31 SKOWRON KAJA K 7 BYDGOSZCZ ROLLTEAM BYDGOSZCZ 600 m (dzieci 7-11 lat) 00:01:51.48
8 9 FUDALA LAURA K 8 BYDGOSZCZ KLUB SPORTOWY JASTRZĘBIE KORONOWO 600 m (dzieci 7-11 lat) 00:01:51.90
9 20 KRYSZAK DOROTA K 9 WŁADYSŁAWOWO 600 m (dzieci 7-11 lat) 00:01:54.48
10 27 PRANCZK MARIANNA K 10 SIERAKOWICE 600 m (dzieci 7-11 lat) 00:01:55.26
11 7 ELMANOWSKA JOANNA K 11 REDA 600 m (dzieci 7-11 lat) 00:01:55.82
12 17 KOWALEWSKA MARTYNA K 12 STRZEBIELINO FILONERO 600 m (dzieci 7-11 lat) 00:01:58.87
13 16 KOŃCZAK JOANNA K 13 GDAŃSK SP 19 W GDAŃSKU 600 m (dzieci 7-11 lat) 00:02:08.04
14 11 GOŁKOWSKA KARINA K 14 GDAŃSK STOWARZYSZENIE WROTKARSKIE GDAŃSKIE LWY 600 m (dzieci 7-11 lat) 00:02:10.92
15 3 ANDRYSKOWSKA JOWITA K 15 STRZEBIELINO 600 m (dzieci 7-11 lat) 00:02:12.47
16 12 GOŁKOWSKA LAURA K 16 GDAŃSK STOWARZYSZENIE WROTKARSKIE GDAŃSKIE LWY 600 m (dzieci 7-11 lat) 00:02:15.71
17 26 PAZERA SARA K 17 PRUSZCZ GDAŃSKI STOWARZYSZENIE WROTKARSKIE GDAŃSKIE LWY 600 m (dzieci 7-11 lat) 00:02:22.78
18 8 ELMANOWSKA NATALIA K 18 REDA 600 m (dzieci 7-11 lat) 00:02:31.75
19 24 NIERZWICKA MARIA K 19 STRZEBIELINO 600 m (dzieci 7-11 lat) 00:02:40.60
20 28 PROCH HUBERT M 1 KORONOWO 600 m (dzieci 7-11 lat) 00:02:45.71
21 23 NAPORA IVAN M 2 GDANSK STOWARZYSZENIE WROTKARSKIE GDAŃSKIE LWY 600 m (dzieci 7-11 lat) 00:02:46.31
22 33 TOPOLIŃSKI PATRYK M 3 KORONOWO KLUB SPORTOWY JASTRZĘBIE KORONOWO 600 m (dzieci 7-11 lat) 00:03:11.88
23 21 KRYSZAK HENRYK M 4 WŁADYSŁAWOWO 600 m (dzieci 7-11 lat) 00:03:27.11
24 13 GRUBBA FILIP M 5 KĘBŁOWO 600 m (dzieci 7-11 lat) 00:07:17.08
25 22 LAMENTA LILIANNA K 20 REDA 600 m (dzieci 7-11 lat) 00:08:02.68

Komunikat. Wykorzystujemy pliki cookies, aby nasz serwis lepiej spełniał Państwa oczekiwania. Można zablokować zapisywanie cookies, zmieniając ustawienia przeglądarki. [x] __ZAMKNIJ